createdAt,value
2022-08-09T00:00:04.261Z,98765.31
2022-08-09T00:02:49.431Z,98767.22
2022-08-09T00:06:17.892Z,98773.19
2022-08-09T00:08:09.787Z,98777.09
2022-08-09T00:10:37.733Z,98769.53
2022-08-09T00:13:16.939Z,98770.06
2022-08-09T00:15:58.896Z,98774.22
2022-08-09T00:18:29.838Z,98770.03
2022-08-09T00:21:00.103Z,98760.94
2022-08-09T00:23:57.398Z,98760.41
2022-08-09T00:26:14.625Z,98764.31
2022-08-09T00:28:42.195Z,98772.88
2022-08-09T00:31:57.360Z,98774.19
2022-08-09T00:34:08.863Z,98766.38
2022-08-09T00:36:39.989Z,98772.13
2022-08-09T00:39:10.917Z,98767.94
2022-08-09T00:44:09.846Z,98778.38
2022-08-09T00:44:43.430Z,98776.03
2022-08-09T00:47:15.520Z,98783.56
2022-08-09T00:49:43.807Z,98784.06
2022-08-09T00:52:30.487Z,98774.97
2022-08-09T00:55:00.312Z,98777.56
2022-08-09T00:57:34.218Z,98771.06
2022-08-09T01:00:21.424Z,98770.00
2022-08-09T01:02:53.148Z,98781.75
2022-08-09T01:05:53.667Z,98784.59
2022-08-09T01:08:29.970Z,98785.91
2022-08-09T01:11:09.715Z,98779.69
2022-08-09T01:13:59.122Z,98787.75
2022-08-09T01:16:30.789Z,98788.78
2022-08-09T01:19:04.682Z,98792.44
2022-08-09T01:21:51.137Z,98792.44
2022-08-09T01:24:35.711Z,98793.19
2022-08-09T01:27:07.930Z,98787.22
2022-08-09T01:29:55.065Z,98786.16
2022-08-09T01:32:34.342Z,98776.28
2022-08-09T01:35:29.039Z,98770.28
2022-08-09T01:38:09.215Z,98768.19
2022-08-09T01:40:45.226Z,98764.28
2022-08-09T01:43:24.127Z,98759.84
2022-08-09T01:45:54.396Z,98761.91
2022-08-09T01:48:31.381Z,98766.56
2022-08-09T01:50:59.743Z,98757.19
2022-08-09T01:53:29.044Z,98759.00
2022-08-09T01:55:57.984Z,98761.06
2022-08-09T01:58:29.960Z,98758.22
2022-08-09T02:00:58.986Z,98761.56
2022-08-09T02:03:29.586Z,98766.75
2022-08-09T02:06:03.700Z,98761.00
2022-08-09T02:08:57.345Z,98767.72
2022-08-09T02:11:42.903Z,98763.00
2022-08-09T02:14:25.057Z,98760.66
2022-08-09T02:16:59.653Z,98766.38
2022-08-09T02:19:43.870Z,98764.28
2022-08-09T02:22:19.046Z,98773.13
2022-08-09T02:24:58.609Z,98772.09
2022-08-09T02:27:57.380Z,98778.06
2022-08-09T02:30:19.416Z,98773.06
2022-08-09T02:32:48.111Z,98769.41
2022-08-09T02:35:26.078Z,98763.63
2022-08-09T02:38:27.932Z,98771.97
2022-08-09T02:41:01.282Z,98764.69
2022-08-09T02:43:30.302Z,98768.81
2022-08-09T02:46:17.446Z,98763.63
2022-08-09T02:48:46.133Z,98766.41
2022-08-09T02:51:17.721Z,98776.00
2022-08-09T02:54:00.493Z,98780.94
2022-08-09T02:56:29.385Z,98785.63
2022-08-09T02:58:58.311Z,98784.56
2022-08-09T03:01:43.184Z,98772.38
2022-08-09T03:04:19.802Z,98778.09
2022-08-09T03:06:48.935Z,98776.31
2022-08-09T03:09:17.846Z,98777.06
2022-08-09T03:12:05.449Z,98771.56
2022-08-09T03:14:33.598Z,98771.81
2022-08-09T03:17:05.947Z,98773.63
2022-08-09T03:19:59.589Z,98780.09
2022-08-09T03:22:29.902Z,98781.63
2022-08-09T03:25:06.695Z,98780.81
2022-08-09T03:27:50.774Z,98789.81
2022-08-09T03:30:23.662Z,98776.50
2022-08-09T03:33:13.113Z,98785.28
2022-08-09T03:36:16.038Z,98786.78
2022-08-09T03:38:33.369Z,98777.16
2022-08-09T03:41:00.596Z,98783.00
2022-08-09T03:43:32.061Z,98780.50
2022-08-09T03:46:05.421Z,98776.16
2022-08-09T03:48:53.852Z,98771.72
2022-08-09T03:51:56.819Z,98778.28
2022-08-09T03:54:10.681Z,98772.59
2022-08-09T03:56:41.300Z,98779.28
2022-08-09T03:59:17.280Z,98784.53
2022-08-09T04:01:54.814Z,98783.06
2022-08-09T04:04:24.622Z,98789.25
2022-08-09T04:06:51.875Z,98793.69
2022-08-09T04:09:47.883Z,98785.94
2022-08-09T04:12:30.783Z,98771.66
2022-08-09T04:15:01.977Z,98779.81
2022-08-09T04:17:42.384Z,98776.78
2022-08-09T04:20:13.822Z,98776.63
2022-08-09T04:22:44.237Z,98779.97
2022-08-09T04:25:13.022Z,98788.53
2022-08-09T04:27:46.727Z,98788.47
2022-08-09T04:30:20.860Z,98785.63
2022-08-09T04:32:50.754Z,98781.22
2022-08-09T04:35:21.808Z,98775.22
2022-08-09T04:37:50.018Z,98784.38
2022-08-09T04:40:28.916Z,98790.34
2022-08-09T04:43:04.001Z,98788.03
2022-08-09T04:45:36.064Z,98793.81
2022-08-09T04:48:20.218Z,98791.25
2022-08-09T04:50:50.098Z,98789.25
2022-08-09T04:53:17.469Z,98787.19
2022-08-09T04:55:58.507Z,98780.69
2022-08-09T04:58:27.082Z,98782.78
2022-08-09T05:00:55.299Z,98779.94
2022-08-09T05:03:40.362Z,98776.53
2022-08-09T05:06:18.245Z,98773.94
2022-08-09T05:09:00.224Z,98776.81
2022-08-09T05:11:32.001Z,98778.38
2022-08-09T05:14:06.078Z,98775.75
2022-08-09T05:16:34.187Z,98793.38
2022-08-09T05:19:11.227Z,98784.94
2022-08-09T05:21:47.055Z,98788.56
2022-08-09T05:24:22.717Z,98783.34
2022-08-09T05:26:51.989Z,98789.06
2022-08-09T05:29:24.140Z,98789.19
2022-08-09T05:32:00.561Z,98797.94
2022-08-09T05:34:30.762Z,98795.13
2022-08-09T05:37:06.462Z,98782.41
2022-08-09T05:39:35.633Z,98788.44
2022-08-09T05:42:07.059Z,98781.84
2022-08-09T05:44:36.061Z,98779.97
2022-08-09T05:47:05.672Z,98781.91
2022-08-09T05:50:23.497Z,98776.91
2022-08-09T05:52:24.861Z,98778.88
2022-08-09T05:54:52.518Z,98775.81
2022-08-09T05:57:19.781Z,98783.63
2022-08-09T05:59:52.478Z,98775.53
2022-08-09T06:02:20.447Z,98783.19
2022-08-09T06:04:49.202Z,98781.72
2022-08-09T06:07:21.701Z,98779.03
2022-08-09T06:09:54.945Z,98785.53
2022-08-09T06:12:29.169Z,98782.81
2022-08-09T06:15:00.883Z,98792.19
2022-08-09T06:17:40.519Z,98798.72
2022-08-09T06:20:09.055Z,98793.91
2022-08-09T06:22:36.817Z,98793.19
2022-08-09T06:25:08.560Z,98776.88
2022-08-09T06:27:42.126Z,98788.19
2022-08-09T06:30:14.231Z,98782.75
2022-08-09T06:32:58.837Z,98786.16
2022-08-09T06:35:35.746Z,98789.09
2022-08-09T06:38:15.948Z,98781.91
2022-08-09T06:40:44.735Z,98789.75
2022-08-09T06:43:13.525Z,98780.31
2022-08-09T06:46:04.959Z,98779.22
2022-08-09T06:48:31.108Z,98777.56
2022-08-09T06:50:59.559Z,98782.75
2022-08-09T06:53:27.079Z,98770.09
2022-08-09T06:56:03.187Z,98782.81
2022-08-09T07:00:46.990Z,98777.13
2022-08-09T07:01:18.204Z,98778.81
2022-08-09T07:03:52.547Z,98782.34
2022-08-09T07:06:21.106Z,98782.94
2022-08-09T07:08:49.569Z,98779.44
2022-08-09T07:11:25.269Z,98782.69
2022-08-09T07:14:04.338Z,98781.06
2022-08-09T07:16:42.563Z,98780.16
2022-08-09T07:19:23.191Z,98769.31
2022-08-09T07:21:57.555Z,98755.19
2022-08-09T07:24:32.406Z,98764.31
2022-08-09T07:27:28.244Z,98755.69
2022-08-09T07:29:59.340Z,98759.53
2022-08-09T07:32:32.151Z,98757.16
2022-08-09T07:35:02.664Z,98760.50
2022-08-09T07:37:30.141Z,98755.97
2022-08-09T07:40:13.066Z,98755.91
2022-08-09T07:42:54.524Z,98758.88
2022-08-09T07:45:39.179Z,98757.72
2022-08-09T07:48:22.468Z,98755.13
2022-08-09T07:51:09.158Z,98763.44
2022-08-09T07:54:04.428Z,98762.25
2022-08-09T07:56:33.371Z,98764.50
2022-08-09T07:59:03.072Z,98754.72
2022-08-09T08:01:34.118Z,98754.41
2022-08-09T08:04:02.686Z,98749.34
2022-08-09T08:06:32.256Z,98754.72
2022-08-09T08:09:04.888Z,98755.94
2022-08-09T08:12:24.793Z,98761.19
2022-08-09T08:14:21.428Z,98742.53
2022-08-09T08:17:00.979Z,98755.66
2022-08-09T08:19:35.443Z,98748.75
2022-08-09T08:22:02.798Z,98751.84
2022-08-09T08:24:39.939Z,98743.72
2022-08-09T08:27:16.803Z,98737.38
2022-08-09T08:29:50.099Z,98737.25
2022-08-09T08:32:28.743Z,98737.16
2022-08-09T08:34:58.770Z,98732.00
2022-08-09T08:37:26.513Z,98733.97
2022-08-09T08:40:10.719Z,98736.28
2022-08-09T08:42:38.206Z,98730.03
2022-08-09T08:45:14.048Z,98728.78
2022-08-09T08:47:44.906Z,98733.97
2022-08-09T08:50:18.333Z,98728.00
2022-08-09T08:52:57.314Z,98718.53
2022-08-09T08:55:27.539Z,98714.47
2022-08-09T08:57:57.568Z,98716.47
2022-08-09T09:00:34.342Z,98712.00
2022-08-09T09:03:11.233Z,98696.38
2022-08-09T09:05:59.970Z,98704.38
2022-08-09T09:08:32.074Z,98706.75
2022-08-09T09:11:06.314Z,98698.75
2022-08-09T09:13:55.029Z,98693.00
2022-08-09T09:16:29.982Z,98689.09
2022-08-09T09:22:05.154Z,98687.03
2022-08-09T09:24:37.899Z,98678.44
2022-08-09T09:27:07.371Z,98668.56
2022-08-09T09:30:08.761Z,98678.44
2022-08-09T09:32:34.703Z,98670.22
2022-08-09T09:35:09.284Z,98668.44
2022-08-09T09:37:40.454Z,98668.06
2022-08-09T09:40:11.581Z,98661.22
2022-08-09T09:42:56.519Z,98653.56
2022-08-09T09:45:26.346Z,98662.03
2022-08-09T09:48:03.354Z,98651.34
2022-08-09T09:50:49.792Z,98658.25
2022-08-09T09:53:21.037Z,98644.09
2022-08-09T09:55:57.691Z,98654.03
2022-08-09T09:58:45.052Z,98642.53
2022-08-09T10:01:37.305Z,98643.56
2022-08-09T10:04:16.031Z,98632.44
2022-08-09T10:06:46.999Z,98622.16
2022-08-09T10:09:22.123Z,98614.94
2022-08-09T10:12:12.144Z,98627.59
2022-08-09T10:14:48.019Z,98618.69
2022-08-09T10:17:39.853Z,98625.16
2022-08-09T10:20:27.659Z,98609.19
2022-08-09T10:23:17.461Z,98615.38
2022-08-09T10:26:07.147Z,98618.41
2022-08-09T10:28:36.859Z,98614.97
2022-08-09T10:32:27.681Z,98617.59
2022-08-09T10:34:09.204Z,98622.97
2022-08-09T10:36:42.830Z,98614.22
2022-08-09T10:39:13.960Z,98614.56
2022-08-09T10:41:47.547Z,98608.84
2022-08-09T10:44:18.539Z,98609.19
2022-08-09T10:48:16.650Z,98598.06
2022-08-09T10:50:27.055Z,98602.28
2022-08-09T10:53:10.062Z,98590.09
2022-08-09T10:55:57.769Z,98583.97
2022-08-09T10:58:34.536Z,98595.44
2022-08-09T11:03:13.617Z,98595.34
2022-08-09T11:04:19.831Z,98596.13
2022-08-09T11:07:58.480Z,98582.31
2022-08-09T11:10:57.832Z,98581.44
2022-08-09T11:13:50.021Z,98585.44
2022-08-09T11:16:37.215Z,98582.44
2022-08-09T11:19:09.586Z,98578.25
2022-08-09T11:21:56.851Z,98569.78
2022-08-09T11:25:03.823Z,98582.81
2022-08-09T11:28:02.819Z,98575.91
2022-08-09T11:30:34.544Z,98570.03
2022-08-09T11:33:08.047Z,98576.09
2022-08-09T11:35:50.011Z,98568.56
2022-08-09T11:38:22.166Z,98565.56
2022-08-09T11:40:53.038Z,98563.69
2022-08-09T11:43:52.208Z,98570.16
2022-08-09T11:46:33.135Z,98556.72
2022-08-09T11:49:05.006Z,98560.22
2022-08-09T11:53:03.730Z,98564.03
2022-08-09T11:55:22.875Z,98553.59
2022-08-09T11:58:40.750Z,98556.53
2022-08-09T12:02:00.724Z,98553.66
2022-08-09T12:04:20.976Z,98544.47
2022-08-09T12:06:56.009Z,98541.41
2022-08-09T12:09:26.727Z,98543.19
2022-08-09T12:12:06.078Z,98536.81
2022-08-09T12:15:03.922Z,98542.53
2022-08-09T12:17:41.667Z,98539.50
2022-08-09T12:20:19.816Z,98541.75
2022-08-09T12:22:52.378Z,98537.44
2022-08-09T12:25:36.210Z,98532.78
2022-08-09T12:28:58.907Z,98529.81
2022-08-09T12:31:01.008Z,98529.13
2022-08-09T12:33:50.818Z,98532.22
2022-08-09T12:36:31.432Z,98528.84
2022-08-09T12:39:00.733Z,98520.41
2022-08-09T12:41:36.371Z,98526.06
2022-08-09T12:44:09.842Z,98513.44
2022-08-09T12:46:40.427Z,98521.47
2022-08-09T12:49:09.569Z,98520.34
2022-08-09T12:51:59.976Z,98509.28
2022-08-09T12:54:24.698Z,98508.56
2022-08-09T12:56:54.683Z,98502.41
2022-08-09T12:59:23.567Z,98497.03
2022-08-09T13:02:02.709Z,98498.38
2022-08-09T13:04:37.589Z,98500.09
2022-08-09T13:07:16.658Z,98506.69
2022-08-09T13:09:52.882Z,98506.03
2022-08-09T13:12:27.999Z,98515.25
2022-08-09T13:15:04.430Z,98538.19
2022-08-09T13:18:02.491Z,98516.66
2022-08-09T13:20:37.521Z,98528.94
2022-08-09T13:24:42.684Z,98549.00
2022-08-09T13:26:36.858Z,98581.31
2022-08-09T13:29:13.085Z,98588.06
2022-08-09T13:32:19.289Z,98582.75
2022-08-09T13:34:46.205Z,98582.31
2022-08-09T13:37:24.736Z,98566.97
2022-08-09T13:41:50.736Z,98547.81
2022-08-09T13:42:50.368Z,98532.16
2022-08-09T13:45:18.191Z,98528.66
2022-08-09T13:47:49.506Z,98532.84
2022-08-09T13:50:30.511Z,98541.66
2022-08-09T13:53:00.632Z,98569.16
2022-08-09T13:55:28.945Z,98584.94
2022-08-09T13:57:59.500Z,98581.31
2022-08-09T14:00:29.419Z,98590.50
2022-08-09T14:03:02.753Z,98600.41
2022-08-09T14:05:56.421Z,98587.81
2022-08-09T14:08:31.665Z,98583.38
2022-08-09T14:10:59.561Z,98575.38
2022-08-09T14:14:22.412Z,98574.88
2022-08-09T14:16:17.074Z,98576.41
2022-08-09T14:18:49.647Z,98586.75
2022-08-09T14:21:20.183Z,98589.47
2022-08-09T14:23:55.322Z,98578.97
2022-08-09T14:26:31.750Z,98575.44
2022-08-09T14:29:02.194Z,98577.13
2022-08-09T14:31:36.199Z,98560.72
2022-08-09T14:34:30.830Z,98557.44
2022-08-09T14:37:01.725Z,98570.66
2022-08-09T14:39:39.974Z,98564.69
2022-08-09T14:42:28.828Z,98563.84
2022-08-09T14:46:59.034Z,98570.69
2022-08-09T14:47:58.708Z,98560.19
2022-08-09T14:50:29.318Z,98548.63
2022-08-09T14:52:58.045Z,98544.38
2022-08-09T14:55:31.992Z,98558.53
2022-08-09T14:58:03.032Z,98564.34
2022-08-09T15:00:31.917Z,98554.44
2022-08-09T15:03:02.055Z,98546.66
2022-08-09T15:05:32.014Z,98553.16
2022-08-09T15:08:00.097Z,98546.75
2022-08-09T15:10:31.757Z,98546.59
2022-08-09T15:13:01.503Z,98549.34
2022-08-09T15:15:34.474Z,98554.31
2022-08-09T15:18:08.309Z,98544.06
2022-08-09T15:22:00.988Z,98549.03
2022-08-09T15:24:02.369Z,98539.34
2022-08-09T15:26:30.895Z,98537.16
2022-08-09T15:29:02.556Z,98530.78
2022-08-09T15:31:41.257Z,98542.44
2022-08-09T15:34:32.304Z,98549.66
2022-08-09T15:36:59.875Z,98536.41
2022-08-09T15:39:44.021Z,98535.94
2022-08-09T15:42:19.848Z,98539.69
2022-08-09T15:44:49.399Z,98538.16
2022-08-09T15:47:21.629Z,98539.22
2022-08-09T15:50:04.149Z,98536.16
2022-08-09T15:52:36.067Z,98532.13
2022-08-09T15:55:05.504Z,98535.13
2022-08-09T15:57:44.268Z,98535.31
2022-08-09T16:00:25.960Z,98527.25
2022-08-09T16:02:56.108Z,98538.50
2022-08-09T16:05:47.439Z,98540.69
2022-08-09T16:08:29.950Z,98559.19
2022-08-09T16:10:58.946Z,98558.44
2022-08-09T16:14:04.238Z,98561.84
2022-08-09T16:16:17.468Z,98554.06
2022-08-09T16:18:46.421Z,98550.00
2022-08-09T16:21:17.708Z,98547.72
2022-08-09T16:23:54.787Z,98537.47
2022-08-09T16:26:34.168Z,98530.63
2022-08-09T16:29:11.447Z,98530.31
2022-08-09T16:32:19.979Z,98522.38
2022-08-09T16:34:28.856Z,98525.50
2022-08-09T16:36:56.508Z,98515.69
2022-08-09T16:39:25.954Z,98516.16
2022-08-09T16:42:04.163Z,98511.84
2022-08-09T16:44:33.425Z,98517.78
2022-08-09T16:47:03.965Z,98506.66
2022-08-09T16:50:29.988Z,98497.66
2022-08-09T16:52:35.402Z,98490.81
2022-08-09T16:55:02.765Z,98497.19
2022-08-09T16:58:07.959Z,98498.47
2022-08-09T17:00:19.066Z,98497.69
2022-08-09T17:02:46.518Z,98500.16
2022-08-09T17:05:17.078Z,98502.50
2022-08-09T17:08:46.435Z,98512.75
2022-08-09T17:10:34.653Z,98509.16
2022-08-09T17:13:03.756Z,98513.53
2022-08-09T17:15:59.840Z,98514.16
2022-08-09T17:18:27.104Z,98508.88
2022-08-09T17:20:57.608Z,98515.13
2022-08-09T17:23:37.194Z,98511.88
2022-08-09T17:26:12.408Z,98514.66
2022-08-09T17:28:39.873Z,98513.00
2022-08-09T17:31:08.509Z,98522.59
2022-08-09T17:33:37.798Z,98526.84
2022-08-09T17:36:05.557Z,98530.09
2022-08-09T17:38:39.312Z,98529.50
2022-08-09T17:41:08.429Z,98526.69
2022-08-09T17:43:37.353Z,98535.22
2022-08-09T17:46:07.571Z,98536.94
2022-08-09T17:48:51.984Z,98525.75
2022-08-09T17:51:21.598Z,98540.34
2022-08-09T17:53:53.607Z,98539.75
2022-08-09T17:56:27.193Z,98540.97
2022-08-09T17:58:59.548Z,98553.06
2022-08-09T18:01:58.181Z,98562.84
2022-08-09T18:04:17.849Z,98560.66
2022-08-09T18:06:54.207Z,98564.06
2022-08-09T18:09:23.029Z,98575.66
2022-08-09T18:12:14.557Z,98581.97
2022-08-09T18:14:49.810Z,98584.41
2022-08-09T18:17:27.046Z,98588.13
2022-08-09T18:20:58.425Z,98598.13
2022-08-09T18:22:59.788Z,98601.03
2022-08-09T18:25:51.156Z,98598.03
2022-08-09T18:30:40.883Z,98606.38
2022-08-09T18:31:08.230Z,98606.47
2022-08-09T18:33:36.157Z,98604.00
2022-08-09T18:36:05.417Z,98609.84
2022-08-09T18:38:32.546Z,98614.94
2022-08-09T18:40:59.838Z,98612.44
2022-08-09T18:43:27.854Z,98613.34
2022-08-09T18:46:50.910Z,98615.00
2022-08-09T18:48:51.138Z,98623.97
2022-08-09T18:51:19.784Z,98627.50
2022-08-09T18:54:09.655Z,98628.41
2022-08-09T18:56:45.204Z,98629.78
2022-08-09T18:59:22.432Z,98626.00
2022-08-09T19:01:54.099Z,98623.78
2022-08-09T19:04:34.478Z,98620.78
2022-08-09T19:07:05.314Z,98630.75
2022-08-09T19:10:12.946Z,98628.84
2022-08-09T19:12:21.163Z,98625.06
2022-08-09T19:14:51.343Z,98618.84
2022-08-09T19:17:18.948Z,98619.25
2022-08-09T19:19:48.791Z,98628.81
2022-08-09T19:22:17.613Z,98629.84
2022-08-09T19:25:08.811Z,98628.13
2022-08-09T19:27:34.788Z,98629.47
2022-08-09T19:30:25.109Z,98626.19
2022-08-09T19:32:52.953Z,98635.94
2022-08-09T19:35:21.251Z,98640.16
2022-08-09T19:37:57.872Z,98642.13
2022-08-09T19:40:33.440Z,98632.97
2022-08-09T19:43:05.441Z,98639.41
2022-08-09T19:45:40.383Z,98641.34
2022-08-09T19:48:10.948Z,98640.38
2022-08-09T19:50:49.390Z,98638.91
2022-08-09T19:53:21.038Z,98651.28
2022-08-09T19:56:03.226Z,98653.41
2022-08-09T19:58:34.215Z,98650.59
2022-08-09T20:01:01.647Z,98654.38
2022-08-09T20:04:09.978Z,98659.41
2022-08-09T20:06:23.938Z,98645.03
2022-08-09T20:08:59.391Z,98657.38
2022-08-09T20:11:43.064Z,98663.59
2022-08-09T20:14:16.424Z,98664.59
2022-08-09T20:16:54.483Z,98663.03
2022-08-09T20:19:49.235Z,98667.31
2022-08-09T20:22:10.193Z,98679.81
2022-08-09T20:24:53.376Z,98681.66
2022-08-09T20:27:21.618Z,98683.50
2022-08-09T20:29:49.369Z,98679.31
2022-08-09T20:32:30.067Z,98677.00
2022-08-09T20:35:05.627Z,98673.09
2022-08-09T20:38:08.575Z,98673.88
2022-08-09T20:40:27.217Z,98682.81
2022-08-09T20:43:12.099Z,98684.16
2022-08-09T20:46:00.453Z,98693.09
2022-08-09T20:48:31.531Z,98691.50
2022-08-09T20:50:59.564Z,98695.72
2022-08-09T20:53:35.676Z,98691.50
2022-08-09T20:56:21.203Z,98696.75
2022-08-09T20:58:50.134Z,98707.53
2022-08-09T21:01:34.539Z,98712.28
2022-08-09T21:05:48.671Z,98705.28
2022-08-09T21:06:52.399Z,98707.69
2022-08-09T21:09:41.658Z,98711.88
2022-08-09T21:14:41.905Z,98718.72
2022-08-09T21:18:11.090Z,98721.16
2022-08-09T21:20:17.757Z,98723.06
2022-08-09T21:22:46.677Z,98720.50
2022-08-09T21:25:37.886Z,98727.09
2022-08-09T21:28:11.846Z,98719.81
2022-08-09T21:30:40.465Z,98728.19
2022-08-09T21:33:08.572Z,98725.66
2022-08-09T21:35:39.483Z,98721.75
2022-08-09T21:38:08.910Z,98720.00
2022-08-09T21:40:36.217Z,98720.03
2022-08-09T21:43:07.089Z,98721.09
2022-08-09T21:45:39.174Z,98716.94
2022-08-09T21:48:07.510Z,98725.63
2022-08-09T21:50:38.512Z,98724.13
2022-08-09T21:53:15.694Z,98725.56
2022-08-09T21:55:51.342Z,98714.41
2022-08-09T21:58:19.877Z,98718.59
2022-08-09T22:00:48.603Z,98722.78
2022-08-09T22:03:25.765Z,98724.59
2022-08-09T22:05:54.247Z,98722.00
2022-08-09T22:08:24.715Z,98719.38
2022-08-09T22:11:04.921Z,98723.78
2022-08-09T22:13:42.371Z,98718.81
2022-08-09T22:16:12.065Z,98727.75
2022-08-09T22:18:53.235Z,98727.75
2022-08-09T22:21:24.070Z,98731.34
2022-08-09T22:24:01.221Z,98731.56
2022-08-09T22:26:35.104Z,98732.84
2022-08-09T22:29:09.499Z,98725.47
2022-08-09T22:31:38.145Z,98724.13
2022-08-09T22:34:14.971Z,98729.38
2022-08-09T22:36:46.197Z,98722.59
2022-08-09T22:39:20.768Z,98715.94
2022-08-09T22:42:01.746Z,98711.69
2022-08-09T22:44:33.081Z,98720.03
2022-08-09T22:48:14.951Z,98717.38
2022-08-09T22:49:52.138Z,98720.19
2022-08-09T22:52:21.236Z,98713.69
2022-08-09T22:54:51.630Z,98716.25
2022-08-09T22:57:18.794Z,98714.09
2022-08-09T22:59:55.503Z,98719.06
2022-08-09T23:02:26.033Z,98716.44
2022-08-09T23:04:55.406Z,98718.88
2022-08-09T23:08:21.776Z,98721.63
2022-08-09T23:10:31.484Z,98718.00
2022-08-09T23:12:59.676Z,98729.59
2022-08-09T23:15:29.526Z,98727.81
2022-08-09T23:17:57.056Z,98726.00
2022-08-09T23:20:26.138Z,98731.50
2022-08-09T23:22:53.679Z,98739.63
2022-08-09T23:25:20.866Z,98725.00
2022-08-09T23:28:01.866Z,98728.38
2022-08-09T23:30:36.545Z,98718.19
2022-08-09T23:33:03.787Z,98710.88
2022-08-09T23:35:30.997Z,98716.91
2022-08-09T23:38:18.310Z,98710.88
2022-08-09T23:40:45.638Z,98712.22
2022-08-09T23:43:13.005Z,98705.44
2022-08-09T23:45:41.567Z,98718.03
2022-08-09T23:48:09.259Z,98724.06
2022-08-09T23:50:36.758Z,98724.06
2022-08-09T23:53:04.308Z,98728.00
2022-08-09T23:55:33.098Z,98726.22
2022-08-09T23:58:09.391Z,98732.53
